Time;durP1;ratioP1;P1;durP2;ratioP2;P2;SDS_P1;SDS_P2;PMS_P1;PMS_P2;Temp;Humidity;BMP_temperature;BMP_pressure;BME280_temperature;BME280_humidity;BME280_pressure;Samples;Min_cycle;Max_cycle;Signal;HPM_P1;HPM_P2
2023/06/18 00:00:33;;;;;;;10.25;8.30;;;;;;;;;;4934607;29;20030;-47
2023/06/18 00:02:58;;;;;;;10.98;7.85;;;;;;;;;;4936197;28;20039;-44
2023/06/18 00:05:24;;;;;;;9.93;8.15;;;;;;;;;;4936906;28;20024;-41
2023/06/18 00:07:49;;;;;;;9.35;7.80;;;;;;;;;;4935947;29;20512;-42
2023/06/18 00:10:14;;;;;;;12.73;8.10;;;;;;;;;;4923375;28;20465;-42
2023/06/18 00:12:40;;;;;;;13.55;7.72;;;;;;;;;;4979767;28;20037;-44
2023/06/18 00:15:06;;;;;;;11.40;8.88;;;;;;;;;;4960378;28;20043;-42
2023/06/18 00:17:32;;;;;;;9.68;8.25;;;;;;;;;;4932593;28;20047;-41
2023/06/18 00:19:58;;;;;;;12.85;8.15;;;;;;;;;;4956498;28;20031;-45
2023/06/18 00:22:23;;;;;;;11.75;8.23;;;;;;;;;;4934520;28;20050;-42
2023/06/18 00:24:49;;;;;;;9.00;8.05;;;;;;;;;;4947468;28;20038;-42
2023/06/18 00:27:14;;;;;;;11.80;8.35;;;;;;;;;;4921851;28;20126;-45
2023/06/18 00:29:40;;;;;;;11.85;8.57;;;;;;;;;;4918433;28;20035;-41
2023/06/18 00:32:07;;;;;;;9.95;8.15;;;;;;;;;;4983298;28;20036;-41
2023/06/18 00:34:32;;;;;;;11.50;8.18;;;;;;;;;;4900374;28;20071;-41
2023/06/18 00:37:02;;;;;;;9.60;8.10;;;;;;;;;;4973407;28;20065;-42
2023/06/18 00:39:28;;;;;;;11.48;8.00;;;;;;;;;;4935635;29;20032;-42
2023/06/18 00:41:54;;;;;;;8.73;7.82;;;;;;;;;;4954928;28;20040;-41
2023/06/18 00:44:21;;;;;;;9.93;8.90;;;;;;;;;;4937786;28;20049;-45
2023/06/18 00:46:51;;;;;;;13.32;9.02;;;;;;;;;;4941402;28;20131;-42
2023/06/18 00:49:18;;;;;;;19.42;9.13;;;;;;;;;;4953794;28;20536;-42
2023/06/18 00:51:44;;;;;;;16.63;9.02;;;;;;;;;;4967665;28;20043;-44
2023/06/18 00:54:15;;;;;;;11.98;9.10;;;;;;;;;;4951050;28;20032;-41
2023/06/18 00:56:53;;;;;;;13.65;9.20;;;;;;;;;;4936242;28;20044;-41
2023/06/18 00:59:23;;;;;;;10.20;9.15;;;;;;;;;;4937270;28;20497;-41
2023/06/18 01:01:53;;;;;;;12.13;9.32;;;;;;;;;;4934180;28;20406;-42
2023/06/18 01:04:20;;;;;;;11.95;10.75;;;;;;;;;;4936689;28;20393;-44
2023/06/18 01:06:51;;;;;;;18.33;10.77;;;;;;;;;;4935004;28;20051;-41
2023/06/18 01:09:21;;;;;;;14.90;10.65;;;;;;;;;;4980823;28;20528;-43
2023/06/18 01:11:51;;;;;;;12.50;10.40;;;;;;;;;;4935195;28;20349;-41
2023/06/18 01:14:31;;;;;;;15.45;11.82;;;;;;;;;;4945108;28;20032;-41
2023/06/18 01:16:58;;;;;;;14.60;10.70;;;;;;;;;;4935293;28;20052;-41
2023/06/18 01:19:45;;;;;;;17.77;10.55;;;;;;;;;;4936291;28;20437;-44
2023/06/18 01:22:37;;;;;;;12.05;10.23;;;;;;;;;;4939057;28;20036;-43
2023/06/18 01:25:05;;;;;;;13.77;10.05;;;;;;;;;;4935037;28;20032;-41
2023/06/18 01:27:33;;;;;;;14.32;10.57;;;;;;;;;;4967686;28;20514;-41
2023/06/18 01:30:00;;;;;;;13.55;10.70;;;;;;;;;;4952946;28;20033;-41
2023/06/18 01:32:27;;;;;;;13.02;10.80;;;;;;;;;;4972346;28;20052;-44
2023/06/18 01:34:55;;;;;;;13.80;10.52;;;;;;;;;;4964484;28;20045;-43
2023/06/18 01:37:29;;;;;;;16.58;10.75;;;;;;;;;;4942261;28;20090;-43
2023/06/18 01:40:06;;;;;;;16.85;10.88;;;;;;;;;;4933532;28;20028;-41
2023/06/18 01:42:35;;;;;;;15.68;10.15;;;;;;;;;;4933923;28;20139;-42
2023/06/18 01:45:08;;;;;;;12.48;10.20;;;;;;;;;;4934479;28;20036;-44
2023/06/18 01:47:34;;;;;;;13.55;10.23;;;;;;;;;;4921072;28;20038;-43
2023/06/18 01:50:01;;;;;;;10.43;9.32;;;;;;;;;;4980362;28;20058;-41
2023/06/18 01:52:32;;;;;;;15.00;10.57;;;;;;;;;;4930874;28;20050;-43
2023/06/18 01:55:01;;;;;;;15.23;9.50;;;;;;;;;;4936321;28;20032;-42
2023/06/18 01:57:27;;;;;;;13.93;9.70;;;;;;;;;;4933511;28;20560;-45
2023/06/18 01:59:52;;;;;;;12.55;9.85;;;;;;;;;;4933686;28;20086;-43
2023/06/18 02:02:17;;;;;;;11.32;9.75;;;;;;;;;;4926716;29;20561;-45
2023/06/18 02:04:43;;;;;;;19.17;10.57;;;;;;;;;;4934019;28;20054;-42
2023/06/18 02:07:12;;;;;;;11.05;9.95;;;;;;;;;;4952951;28;20048;-42
2023/06/18 02:09:38;;;;;;;11.63;10.32;;;;;;;;;;4935930;29;20500;-44
2023/06/18 02:12:04;;;;;;;15.43;10.15;;;;;;;;;;4934268;28;20043;-43
2023/06/18 02:14:30;;;;;;;15.27;10.98;;;;;;;;;;4916645;28;20150;-42
2023/06/18 02:16:55;;;;;;;11.68;10.50;;;;;;;;;;4961429;28;20441;-43
2023/06/18 02:19:21;;;;;;;13.18;9.90;;;;;;;;;;4932843;28;20400;-41
2023/06/18 02:21:47;;;;;;;11.95;10.13;;;;;;;;;;4934121;28;20402;-46
2023/06/18 02:24:12;;;;;;;15.20;10.20;;;;;;;;;;4957488;28;20055;-45
2023/06/18 02:26:37;;;;;;;12.05;10.02;;;;;;;;;;4930937;28;20453;-43
2023/06/18 02:29:03;;;;;;;13.68;9.63;;;;;;;;;;4941927;28;20065;-44
2023/06/18 02:31:28;;;;;;;19.83;10.45;;;;;;;;;;4917544;28;20043;-42
2023/06/18 02:33:54;;;;;;;10.68;9.60;;;;;;;;;;4934781;28;20047;-42
2023/06/18 02:36:19;;;;;;;12.07;9.88;;;;;;;;;;4931284;28;20040;-42
2023/06/18 02:38:45;;;;;;;13.60;10.05;;;;;;;;;;4946485;28;20038;-41
2023/06/18 02:41:10;;;;;;;14.85;10.00;;;;;;;;;;4956154;28;20047;-42
2023/06/18 02:43:36;;;;;;;12.20;10.13;;;;;;;;;;4930587;28;20035;-43
2023/06/18 02:46:02;;;;;;;12.00;10.13;;;;;;;;;;4932394;28;20043;-46
2023/06/18 02:48:27;;;;;;;10.48;9.40;;;;;;;;;;4943254;28;20110;-44
2023/06/18 02:50:53;;;;;;;20.45;9.95;;;;;;;;;;4969291;28;20075;-43
2023/06/18 02:53:18;;;;;;;10.88;9.60;;;;;;;;;;4928419;28;20031;-44
2023/06/18 02:55:44;;;;;;;14.00;9.25;;;;;;;;;;4931974;28;20089;-44
2023/06/18 02:58:19;;;;;;;11.07;9.38;;;;;;;;;;4934233;28;20047;-43
2023/06/18 03:00:45;;;;;;;11.38;9.13;;;;;;;;;;4932388;28;20043;-41
2023/06/18 03:03:14;;;;;;;10.50;9.50;;;;;;;;;;4959744;28;20089;-43
2023/06/18 03:05:40;;;;;;;12.35;9.75;;;;;;;;;;4951861;28;20045;-43
2023/06/18 03:08:06;;;;;;;16.35;9.82;;;;;;;;;;4934717;28;20032;-44
2023/06/18 03:10:31;;;;;;;11.35;9.57;;;;;;;;;;4917076;28;20069;-44
2023/06/18 03:12:57;;;;;;;10.02;9.02;;;;;;;;;;4919117;28;20515;-42
2023/06/18 03:15:22;;;;;;;12.25;9.45;;;;;;;;;;4917232;28;20020;-42
2023/06/18 03:17:48;;;;;;;13.75;9.90;;;;;;;;;;4936020;28;20041;-44
2023/06/18 03:20:13;;;;;;;11.45;9.85;;;;;;;;;;4934527;28;20039;-42
2023/06/18 03:22:39;;;;;;;10.35;9.35;;;;;;;;;;4938621;28;20117;-44
2023/06/18 03:25:05;;;;;;;13.10;9.75;;;;;;;;;;4934194;28;20066;-41
2023/06/18 03:27:31;;;;;;;16.05;9.73;;;;;;;;;;4904124;28;20082;-42
2023/06/18 03:29:56;;;;;;;19.08;10.60;;;;;;;;;;4931773;28;20032;-43
2023/06/18 03:32:22;;;;;;;11.20;10.05;;;;;;;;;;4929205;28;20447;-43
2023/06/18 03:34:48;;;;;;;10.43;9.43;;;;;;;;;;4932892;28;20051;-44
2023/06/18 03:37:16;;;;;;;12.27;10.25;;;;;;;;;;4939365;28;20135;-43
2023/06/18 03:39:42;;;;;;;14.98;9.82;;;;;;;;;;4935310;29;20028;-42
2023/06/18 03:42:07;;;;;;;13.38;9.52;;;;;;;;;;4926397;28;20050;-44
2023/06/18 03:44:33;;;;;;;14.70;9.57;;;;;;;;;;4932026;28;20098;-43
2023/06/18 03:46:58;;;;;;;19.15;9.77;;;;;;;;;;4949681;28;20054;-41
2023/06/18 03:49:24;;;;;;;10.50;9.45;;;;;;;;;;4931107;29;20023;-43
2023/06/18 03:51:49;;;;;;;12.10;8.90;;;;;;;;;;4950895;28;20035;-47
2023/06/18 03:54:15;;;;;;;10.18;9.15;;;;;;;;;;4941390;28;20036;-47
2023/06/18 03:56:41;;;;;;;9.98;8.93;;;;;;;;;;4937780;28;20054;-44
2023/06/18 03:59:06;;;;;;;12.27;8.82;;;;;;;;;;4951308;28;20059;-44
2023/06/18 04:01:32;;;;;;;10.52;9.23;;;;;;;;;;4937178;28;20076;-43
2023/06/18 04:03:57;;;;;;;11.55;10.32;;;;;;;;;;4933925;29;20035;-41
2023/06/18 04:06:22;;;;;;;11.00;9.77;;;;;;;;;;4957605;28;20485;-43
2023/06/18 04:08:48;;;;;;;13.73;9.27;;;;;;;;;;4960775;28;20455;-44
2023/06/18 04:11:13;;;;;;;12.38;9.50;;;;;;;;;;4956956;28;20087;-41
2023/06/18 04:13:40;;;;;;;11.73;9.65;;;;;;;;;;4947184;28;20023;-43
2023/06/18 04:16:05;;;;;;;10.70;9.15;;;;;;;;;;4934817;28;20070;-44
2023/06/18 04:18:31;;;;;;;12.82;9.23;;;;;;;;;;4946615;28;20516;-43
2023/06/18 04:20:56;;;;;;;16.42;9.55;;;;;;;;;;4935895;28;20044;-47
2023/06/18 04:23:21;;;;;;;12.90;9.07;;;;;;;;;;4934446;29;20031;-43
2023/06/18 04:25:47;;;;;;;14.02;9.20;;;;;;;;;;4946717;28;20024;-41
2023/06/18 04:28:12;;;;;;;11.27;8.85;;;;;;;;;;4935759;28;20039;-44
2023/06/18 04:30:38;;;;;;;10.35;8.43;;;;;;;;;;4965663;28;20024;-42
2023/06/18 04:33:03;;;;;;;12.27;8.40;;;;;;;;;;4936828;28;20038;-44
2023/06/18 04:35:29;;;;;;;10.40;7.93;;;;;;;;;;4933064;28;20067;-43
2023/06/18 04:37:54;;;;;;;12.77;8.85;;;;;;;;;;4935350;28;20603;-41
2023/06/18 04:40:21;;;;;;;10.35;8.05;;;;;;;;;;4934771;28;20027;-41
2023/06/18 04:42:47;;;;;;;12.35;10.25;;;;;;;;;;4934277;28;20051;-46
2023/06/18 04:45:12;;;;;;;10.43;8.73;;;;;;;;;;4936682;28;20031;-40
2023/06/18 04:47:39;;;;;;;8.90;8.10;;;;;;;;;;4918938;28;20094;-45
2023/06/18 04:50:06;;;;;;;13.05;8.40;;;;;;;;;;4966722;28;20477;-42
2023/06/18 04:52:31;;;;;;;15.93;8.85;;;;;;;;;;4953119;28;20035;-42
2023/06/18 04:54:57;;;;;;;13.75;8.13;;;;;;;;;;4934692;28;20418;-43
2023/06/18 04:57:22;;;;;;;12.07;8.60;;;;;;;;;;4930791;28;20051;-47
2023/06/18 04:59:48;;;;;;;15.50;9.57;;;;;;;;;;4941831;28;20028;-41
2023/06/18 05:02:14;;;;;;;12.63;8.70;;;;;;;;;;4935131;28;20043;-47
2023/06/18 05:04:40;;;;;;;11.52;8.73;;;;;;;;;;4920201;29;20040;-41
2023/06/18 05:07:06;;;;;;;16.70;9.25;;;;;;;;;;4933443;28;20032;-45
2023/06/18 05:09:31;;;;;;;10.63;8.95;;;;;;;;;;4936085;28;20038;-43
2023/06/18 05:11:56;;;;;;;10.23;9.10;;;;;;;;;;4941460;28;20046;-43
2023/06/18 05:14:22;;;;;;;13.55;9.40;;;;;;;;;;4940954;28;20019;-45
2023/06/18 05:16:48;;;;;;;12.52;8.82;;;;;;;;;;4937557;28;20047;-42
2023/06/18 05:19:13;;;;;;;12.52;10.02;;;;;;;;;;4948631;28;20024;-42
2023/06/18 05:21:39;;;;;;;10.48;9.15;;;;;;;;;;4969378;28;20055;-43
2023/06/18 05:24:07;;;;;;;11.52;9.52;;;;;;;;;;4964972;28;20032;-42
2023/06/18 05:26:33;;;;;;;11.45;9.32;;;;;;;;;;4933454;28;20047;-45
2023/06/18 05:28:58;;;;;;;14.02;9.07;;;;;;;;;;4935960;28;20020;-44
2023/06/18 05:31:23;;;;;;;11.35;9.40;;;;;;;;;;4918058;28;20043;-48
2023/06/18 05:33:49;;;;;;;12.23;9.35;;;;;;;;;;4934515;29;20472;-45
2023/06/18 05:36:14;;;;;;;11.10;9.52;;;;;;;;;;4945209;28;21792;-43
2023/06/18 05:38:40;;;;;;;11.07;9.90;;;;;;;;;;4932371;29;20031;-42
2023/06/18 05:41:05;;;;;;;10.77;9.55;;;;;;;;;;4951126;28;20039;-41
2023/06/18 05:43:31;;;;;;;11.60;9.57;;;;;;;;;;4961372;28;20103;-44
2023/06/18 05:45:57;;;;;;;10.43;9.38;;;;;;;;;;4935613;28;20061;-41
2023/06/18 05:48:23;;;;;;;12.35;9.15;;;;;;;;;;4934093;28;20050;-41
2023/06/18 05:50:48;;;;;;;10.05;9.05;;;;;;;;;;4995324;28;20183;-42
2023/06/18 05:53:14;;;;;;;12.48;9.75;;;;;;;;;;4932889;28;20035;-43
2023/06/18 05:55:40;;;;;;;11.10;9.68;;;;;;;;;;4935128;28;20031;-44
2023/06/18 05:58:05;;;;;;;10.07;9.15;;;;;;;;;;4959450;28;20039;-44
2023/06/18 06:00:31;;;;;;;12.55;9.30;;;;;;;;;;4930567;28;20657;-44
2023/06/18 06:02:56;;;;;;;10.05;8.40;;;;;;;;;;4935614;28;20044;-41
2023/06/18 06:05:22;;;;;;;10.40;8.75;;;;;;;;;;4941874;28;20024;-42
2023/06/18 06:07:47;;;;;;;11.35;8.65;;;;;;;;;;4934881;28;20477;-43
2023/06/18 06:10:16;;;;;;;10.50;8.88;;;;;;;;;;4984541;28;20023;-41
2023/06/18 06:12:41;;;;;;;9.75;8.15;;;;;;;;;;4968653;28;20045;-45
2023/06/18 06:15:08;;;;;;;12.95;8.93;;;;;;;;;;4939168;28;20432;-44
2023/06/18 06:17:33;;;;;;;8.93;8.05;;;;;;;;;;4930852;28;20441;-42
2023/06/18 06:19:59;;;;;;;9.88;8.32;;;;;;;;;;4935516;29;20105;-43
2023/06/18 06:22:24;;;;;;;10.02;8.77;;;;;;;;;;4935899;28;20067;-41
2023/06/18 06:24:50;;;;;;;11.07;8.70;;;;;;;;;;4936563;28;20037;-41
2023/06/18 06:27:16;;;;;;;9.02;8.02;;;;;;;;;;4972096;28;20040;-41
2023/06/18 06:29:41;;;;;;;10.40;8.63;;;;;;;;;;4984037;28;20024;-41
2023/06/18 06:32:07;;;;;;;11.55;8.77;;;;;;;;;;4985214;28;20094;-41
2023/06/18 06:34:33;;;;;;;11.90;8.48;;;;;;;;;;4918238;28;20086;-43
2023/06/18 06:36:58;;;;;;;9.07;8.15;;;;;;;;;;4924600;28;20050;-44
2023/06/18 06:39:23;;;;;;;11.07;8.57;;;;;;;;;;4935109;29;20024;-42
2023/06/18 06:41:49;;;;;;;11.10;8.38;;;;;;;;;;4948999;28;20047;-44
2023/06/18 06:44:15;;;;;;;8.82;7.97;;;;;;;;;;4972472;28;20039;-42
2023/06/18 06:46:40;;;;;;;11.05;8.15;;;;;;;;;;4953229;28;20048;-43
2023/06/18 06:49:07;;;;;;;8.63;7.60;;;;;;;;;;4955157;28;20029;-41
2023/06/18 06:51:33;;;;;;;9.60;8.23;;;;;;;;;;4934147;28;20042;-43
2023/06/18 06:53:59;;;;;;;13.52;8.10;;;;;;;;;;4929475;28;20058;-42
2023/06/18 06:56:25;;;;;;;8.50;7.63;;;;;;;;;;4935607;28;20127;-41
2023/06/18 06:58:51;;;;;;;7.97;7.07;;;;;;;;;;4936236;28;20081;-42
2023/06/18 07:01:19;;;;;;;7.85;7.07;;;;;;;;;;4937231;28;20055;-41
2023/06/18 07:03:45;;;;;;;7.53;6.55;;;;;;;;;;4945495;28;20454;-41
2023/06/18 07:06:10;;;;;;;8.55;7.18;;;;;;;;;;4943780;28;20041;-41
2023/06/18 07:08:36;;;;;;;8.07;7.30;;;;;;;;;;4947540;28;20044;-44
2023/06/18 07:11:01;;;;;;;11.20;7.75;;;;;;;;;;4965624;28;20045;-43
2023/06/18 07:13:26;;;;;;;9.55;7.15;;;;;;;;;;4947190;28;20481;-44
2023/06/18 07:15:52;;;;;;;9.02;7.00;;;;;;;;;;4930095;28;20492;-41
2023/06/18 07:18:17;;;;;;;11.60;6.93;;;;;;;;;;4928997;28;20040;-42
2023/06/18 07:20:43;;;;;;;10.18;6.82;;;;;;;;;;4915361;28;20028;-42
2023/06/18 07:23:08;;;;;;;8.85;7.03;;;;;;;;;;4936296;28;20034;-41
2023/06/18 07:25:33;;;;;;;8.35;7.18;;;;;;;;;;4935962;28;20413;-42
2023/06/18 07:27:59;;;;;;;7.90;7.10;;;;;;;;;;4934626;28;20107;-41
2023/06/18 07:30:24;;;;;;;7.30;6.57;;;;;;;;;;4947734;28;20034;-40
2023/06/18 07:32:50;;;;;;;8.15;6.60;;;;;;;;;;4935256;28;20517;-42
2023/06/18 07:35:15;;;;;;;7.70;6.97;;;;;;;;;;4934772;28;20055;-41
2023/06/18 07:37:41;;;;;;;8.20;6.80;;;;;;;;;;4925580;28;20041;-41
2023/06/18 07:40:07;;;;;;;8.27;5.90;;;;;;;;;;4939124;28;20563;-41
2023/06/18 07:42:32;;;;;;;7.72;6.97;;;;;;;;;;4934922;28;20488;-40
2023/06/18 07:44:58;;;;;;;8.15;6.60;;;;;;;;;;4964926;28;20063;-41
2023/06/18 07:47:23;;;;;;;7.82;6.03;;;;;;;;;;4940659;28;20071;-41
2023/06/18 07:49:49;;;;;;;8.40;6.10;;;;;;;;;;4946460;28;20110;-42
2023/06/18 07:52:14;;;;;;;8.48;6.63;;;;;;;;;;4952880;28;20430;-41
2023/06/18 07:54:39;;;;;;;13.98;6.07;;;;;;;;;;4979651;28;20070;-41
2023/06/18 07:57:05;;;;;;;12.73;6.93;;;;;;;;;;4936023;29;20104;-44
2023/06/18 07:59:30;;;;;;;8.73;6.05;;;;;;;;;;4933609;28;20497;-41
2023/06/18 08:01:56;;;;;;;6.55;5.93;;;;;;;;;;4960580;28;20067;-41
2023/06/18 08:04:22;;;;;;;6.88;6.18;;;;;;;;;;4958455;28;20372;-42
2023/06/18 08:06:50;;;;;;;7.68;5.70;;;;;;;;;;4970261;28;20048;-43
2023/06/18 08:09:16;;;;;;;6.88;6.10;;;;;;;;;;4951696;28;20032;-42
2023/06/18 08:11:42;;;;;;;15.18;6.20;;;;;;;;;;4933455;28;20055;-42
2023/06/18 08:14:07;;;;;;;10.77;6.22;;;;;;;;;;4919821;28;20036;-41
2023/06/18 08:16:33;;;;;;;6.97;6.30;;;;;;;;;;4932804;28;20058;-45
2023/06/18 08:18:58;;;;;;;9.35;6.88;;;;;;;;;;4951112;28;20030;-41
2023/06/18 08:21:23;;;;;;;7.70;6.32;;;;;;;;;;4955342;28;20043;-44
2023/06/18 08:23:50;;;;;;;7.15;6.45;;;;;;;;;;4942395;28;20023;-43
2023/06/18 08:26:16;;;;;;;7.05;6.40;;;;;;;;;;4956735;28;20095;-41
2023/06/18 08:28:41;;;;;;;7.32;6.30;;;;;;;;;;4936425;29;20031;-46
2023/06/18 08:31:07;;;;;;;7.72;5.80;;;;;;;;;;4940311;28;20062;-41
2023/06/18 08:33:32;;;;;;;5.70;5.00;;;;;;;;;;4935097;28;20129;-40
2023/06/18 08:35:58;;;;;;;4.80;4.15;;;;;;;;;;4959303;28;20063;-42
2023/06/18 08:38:23;;;;;;;5.30;4.13;;;;;;;;;;4934877;29;20485;-43
2023/06/18 08:40:51;;;;;;;11.38;4.25;;;;;;;;;;4953795;28;20031;-45
2023/06/18 08:43:22;;;;;;;4.78;4.38;;;;;;;;;;4947710;28;20071;-42
2023/06/18 08:45:51;;;;;;;4.90;4.40;;;;;;;;;;4956795;28;20027;-43
2023/06/18 08:48:20;;;;;;;5.45;4.47;;;;;;;;;;4931213;28;20040;-41
2023/06/18 08:50:46;;;;;;;10.40;4.30;;;;;;;;;;4930947;28;20436;-43
2023/06/18 08:53:21;;;;;;;5.50;4.15;;;;;;;;;;5003720;28;20025;-42
2023/06/18 08:55:48;;;;;;;6.93;4.57;;;;;;;;;;4934998;28;20036;-42
2023/06/18 08:58:17;;;;;;;5.07;4.57;;;;;;;;;;4929882;28;20114;-44
2023/06/18 09:00:43;;;;;;;10.23;4.78;;;;;;;;;;4932508;28;20492;-45
2023/06/18 09:03:10;;;;;;;4.70;4.30;;;;;;;;;;4975009;28;21452;-42
2023/06/18 09:05:37;;;;;;;5.40;4.20;;;;;;;;;;4947434;28;20108;-47
2023/06/18 09:08:02;;;;;;;6.65;4.40;;;;;;;;;;4934605;28;20036;-42
2023/06/18 09:10:28;;;;;;;9.25;4.65;;;;;;;;;;4922966;28;20062;-43
2023/06/18 09:12:53;;;;;;;6.28;4.70;;;;;;;;;;4918759;28;20039;-43
2023/06/18 09:15:19;;;;;;;5.28;4.78;;;;;;;;;;4942323;28;20158;-42
2023/06/18 09:17:51;;;;;;;5.70;4.55;;;;;;;;;;4921693;28;20035;-41
2023/06/18 09:20:19;;;;;;;6.32;4.63;;;;;;;;;;4936811;28;20039;-42
2023/06/18 09:22:47;;;;;;;4.93;4.22;;;;;;;;;;4936782;28;20032;-41
2023/06/18 09:25:18;;;;;;;5.38;4.82;;;;;;;;;;4959736;28;20138;-41
2023/06/18 09:27:44;;;;;;;9.13;4.55;;;;;;;;;;4934423;28;20046;-43
2023/06/18 09:30:22;;;;;;;4.50;4.13;;;;;;;;;;4981376;28;20115;-42
2023/06/18 09:32:48;;;;;;;4.63;4.22;;;;;;;;;;4936104;28;20052;-41
2023/06/18 09:35:16;;;;;;;8.20;4.30;;;;;;;;;;4952558;28;20090;-41
2023/06/18 09:37:41;;;;;;;9.02;4.28;;;;;;;;;;4937118;28;20043;-42
2023/06/18 09:40:17;;;;;;;4.93;3.85;;;;;;;;;;4936820;29;20542;-42
2023/06/18 09:42:44;;;;;;;5.85;4.05;;;;;;;;;;4958588;28;20043;-41
2023/06/18 09:45:10;;;;;;;4.65;3.90;;;;;;;;;;4952149;28;20029;-41
2023/06/18 09:47:41;;;;;;;5.65;4.35;;;;;;;;;;4948445;28;20124;-44
2023/06/18 09:50:09;;;;;;;7.67;3.83;;;;;;;;;;4936935;28;20031;-42
2023/06/18 09:52:46;;;;;;;4.38;3.63;;;;;;;;;;4946040;28;20542;-42
2023/06/18 09:55:33;;;;;;;7.60;4.35;;;;;;;;;;4943767;28;20500;-43
2023/06/18 09:57:59;;;;;;;4.43;4.03;;;;;;;;;;4925144;28;20064;-42
2023/06/18 10:00:26;;;;;;;5.20;3.65;;;;;;;;;;4946661;28;20044;-42
2023/06/18 10:02:52;;;;;;;5.88;3.95;;;;;;;;;;4945311;28;20055;-42
2023/06/18 10:05:17;;;;;;;5.00;3.58;;;;;;;;;;4935842;28;20028;-42
2023/06/18 10:07:43;;;;;;;5.60;4.00;;;;;;;;;;4935216;28;20043;-43
2023/06/18 10:10:16;;;;;;;8.68;3.78;;;;;;;;;;4949111;28;20035;-43
2023/06/18 10:12:43;;;;;;;3.58;3.25;;;;;;;;;;4928674;28;20050;-41
2023/06/18 10:15:14;;;;;;;4.15;3.75;;;;;;;;;;4932693;28;20431;-42
2023/06/18 10:17:55;;;;;;;6.10;3.40;;;;;;;;;;4935613;28;20413;-41
2023/06/18 10:20:22;;;;;;;13.63;4.03;;;;;;;;;;4951020;28;20063;-41
2023/06/18 10:22:53;;;;;;;3.65;3.33;;;;;;;;;;4935300;28;20568;-41
2023/06/18 10:25:18;;;;;;;6.78;4.35;;;;;;;;;;4933230;28;20037;-42
2023/06/18 10:27:44;;;;;;;5.35;3.53;;;;;;;;;;4926211;28;20398;-43
2023/06/18 10:30:10;;;;;;;3.30;3.10;;;;;;;;;;4964370;28;20039;-42
2023/06/18 10:32:36;;;;;;;4.75;3.35;;;;;;;;;;4944113;28;20036;-42
2023/06/18 10:35:07;;;;;;;9.65;3.40;;;;;;;;;;4994370;28;20043;-41
2023/06/18 10:37:34;;;;;;;4.32;3.10;;;;;;;;;;4916842;28;20070;-42
2023/06/18 10:40:02;;;;;;;6.38;3.08;;;;;;;;;;4936364;28;20028;-42
2023/06/18 10:42:30;;;;;;;4.65;2.75;;;;;;;;;;4936706;28;20866;-42
2023/06/18 10:44:58;;;;;;;5.93;3.40;;;;;;;;;;4917357;28;20039;-43
2023/06/18 10:47:25;;;;;;;3.30;3.00;;;;;;;;;;4934206;28;20047;-43
2023/06/18 10:50:03;;;;;;;4.30;2.72;;;;;;;;;;4952356;28;20036;-43
2023/06/18 10:52:39;;;;;;;5.03;2.60;;;;;;;;;;4949356;28;20040;-42
2023/06/18 10:55:18;;;;;;;4.47;3.10;;;;;;;;;;4933838;28;20051;-43
2023/06/18 10:57:47;;;;;;;5.88;2.85;;;;;;;;;;4930863;28;20044;-43
2023/06/18 11:00:17;;;;;;;4.68;3.00;;;;;;;;;;4930432;28;20086;-41
2023/06/18 11:02:43;;;;;;;3.40;2.80;;;;;;;;;;4927501;28;20040;-41
2023/06/18 11:05:35;;;;;;;4.40;2.67;;;;;;;;;;4935635;28;20032;-41
2023/06/18 11:08:07;;;;;;;5.55;2.75;;;;;;;;;;4958097;28;20053;-40
2023/06/18 11:10:38;;;;;;;7.47;2.83;;;;;;;;;;4958633;28;20478;-41
2023/06/18 11:13:07;;;;;;;3.97;2.78;;;;;;;;;;4965353;28;20471;-44
2023/06/18 11:15:34;;;;;;;4.68;2.90;;;;;;;;;;4916571;28;20040;-44
2023/06/18 11:18:03;;;;;;;2.90;2.70;;;;;;;;;;4933813;28;20091;-41
2023/06/18 11:20:38;;;;;;;3.20;2.90;;;;;;;;;;4942252;28;20137;-40
2023/06/18 11:23:04;;;;;;;5.22;2.70;;;;;;;;;;4933554;29;20068;-39
2023/06/18 11:25:30;;;;;;;5.57;2.70;;;;;;;;;;4934409;28;20070;-39
2023/06/18 11:28:02;;;;;;;2.88;2.65;;;;;;;;;;4949031;28;20040;-41
2023/06/18 11:30:29;;;;;;;3.58;2.65;;;;;;;;;;4979722;28;20024;-39
2023/06/18 11:32:54;;;;;;;8.18;3.15;;;;;;;;;;4949890;28;20044;-43
2023/06/18 11:35:20;;;;;;;5.60;3.13;;;;;;;;;;4945138;28;20443;-45
2023/06/18 11:37:45;;;;;;;5.53;2.88;;;;;;;;;;4932560;28;20035;-44
2023/06/18 11:40:12;;;;;;;5.45;4.40;;;;;;;;;;4933426;28;20043;-40
2023/06/18 11:42:46;;;;;;;4.70;3.50;;;;;;;;;;4953180;28;20071;-41
2023/06/18 11:45:11;;;;;;;8.55;3.80;;;;;;;;;;4948302;28;20055;-39
2023/06/18 11:47:37;;;;;;;4.53;3.30;;;;;;;;;;4932093;28;20608;-39
2023/06/18 11:50:02;;;;;;;3.33;3.00;;;;;;;;;;4943916;28;20078;-40
2023/06/18 11:52:29;;;;;;;3.35;3.10;;;;;;;;;;4915814;28;20061;-42
2023/06/18 11:55:03;;;;;;;6.57;3.15;;;;;;;;;;4937483;28;20111;-43
2023/06/18 11:57:28;;;;;;;4.90;3.10;;;;;;;;;;4923172;28;20544;-42
2023/06/18 11:59:54;;;;;;;5.00;3.00;;;;;;;;;;4956634;28;20035;-43
2023/06/18 12:02:22;;;;;;;8.02;3.58;;;;;;;;;;4935740;28;20039;-43
2023/06/18 12:04:49;;;;;;;5.63;3.40;;;;;;;;;;4939115;28;20128;-40
2023/06/18 12:07:25;;;;;;;7.10;3.17;;;;;;;;;;4932211;28;20050;-41
2023/06/18 12:09:58;;;;;;;4.53;3.17;;;;;;;;;;4927951;28;20032;-42
2023/06/18 12:12:26;;;;;;;11.52;3.22;;;;;;;;;;4943225;28;20046;-39
2023/06/18 12:14:55;;;;;;;4.35;3.15;;;;;;;;;;4957020;28;20093;-42
2023/06/18 12:17:50;;;;;;;4.53;3.00;;;;;;;;;;4936894;28;20079;-43
2023/06/18 12:20:18;;;;;;;10.68;3.53;;;;;;;;;;4934338;28;20044;-40
2023/06/18 12:22:44;;;;;;;7.72;2.90;;;;;;;;;;4933034;28;20507;-40
2023/06/18 12:25:13;;;;;;;4.25;3.42;;;;;;;;;;4936040;28;20023;-42
2023/06/18 12:27:41;;;;;;;6.10;3.30;;;;;;;;;;4936768;28;20071;-40
2023/06/18 12:30:08;;;;;;;3.58;3.28;;;;;;;;;;4936433;29;20033;-45
2023/06/18 12:32:36;;;;;;;3.30;3.10;;;;;;;;;;4981405;28;20045;-44
2023/06/18 12:35:15;;;;;;;4.68;2.90;;;;;;;;;;4936309;28;20048;-42
2023/06/18 12:37:46;;;;;;;5.10;3.42;;;;;;;;;;4948925;28;20048;-40
2023/06/18 12:40:21;;;;;;;3.47;3.17;;;;;;;;;;4933666;28;20086;-40
2023/06/18 12:42:47;;;;;;;3.97;3.50;;;;;;;;;;4936987;28;20122;-45
2023/06/18 12:45:13;;;;;;;4.50;3.25;;;;;;;;;;4936194;28;20768;-40
2023/06/18 12:47:40;;;;;;;6.25;3.10;;;;;;;;;;4951500;28;20063;-41
2023/06/18 12:50:06;;;;;;;6.03;3.70;;;;;;;;;;4930067;29;20038;-41
2023/06/18 12:52:41;;;;;;;4.70;3.28;;;;;;;;;;4935894;28;20070;-40
2023/06/18 12:55:11;;;;;;;3.05;2.85;;;;;;;;;;4931113;29;20510;-39
2023/06/18 12:57:37;;;;;;;4.13;3.47;;;;;;;;;;4937295;28;20055;-40
2023/06/18 13:00:17;;;;;;;9.25;3.55;;;;;;;;;;4935415;28;20044;-39
2023/06/18 13:02:45;;;;;;;9.13;3.58;;;;;;;;;;4927624;28;20036;-41
2023/06/18 13:05:10;;;;;;;4.10;3.20;;;;;;;;;;4932096;28;20039;-40
2023/06/18 13:07:38;;;;;;;9.75;3.10;;;;;;;;;;4936854;28;20040;-41
2023/06/18 13:10:04;;;;;;;5.32;3.50;;;;;;;;;;4935843;28;20045;-39
2023/06/18 13:12:30;;;;;;;4.25;2.95;;;;;;;;;;4936339;28;20056;-41
2023/06/18 13:14:55;;;;;;;4.15;3.45;;;;;;;;;;4973227;28;20431;-40
2023/06/18 13:17:21;;;;;;;5.68;2.90;;;;;;;;;;4967681;28;20140;-40
2023/06/18 13:19:46;;;;;;;3.45;2.92;;;;;;;;;;4921903;28;20056;-40
2023/06/18 13:22:12;;;;;;;4.13;2.97;;;;;;;;;;4931880;28;20071;-42
2023/06/18 13:24:38;;;;;;;5.80;3.40;;;;;;;;;;4952749;28;20028;-41
2023/06/18 13:27:04;;;;;;;5.10;3.25;;;;;;;;;;4961926;28;20045;-39
2023/06/18 13:29:30;;;;;;;3.35;3.03;;;;;;;;;;4991206;28;20034;-42
2023/06/18 13:31:55;;;;;;;5.20;2.95;;;;;;;;;;4935274;28;20429;-41
2023/06/18 13:34:21;;;;;;;6.07;3.00;;;;;;;;;;4936406;28;20067;-41
2023/06/18 13:36:48;;;;;;;5.20;3.17;;;;;;;;;;4937324;28;20043;-39
2023/06/18 13:39:14;;;;;;;4.65;2.95;;;;;;;;;;4975381;28;20040;-41
2023/06/18 13:41:39;;;;;;;2.83;2.63;;;;;;;;;;4933625;28;20127;-40
2023/06/18 13:44:04;;;;;;;2.83;2.63;;;;;;;;;;4943107;28;20068;-40
2023/06/18 13:46:30;;;;;;;3.05;2.75;;;;;;;;;;4919760;28;20284;-39
2023/06/18 13:48:55;;;;;;;3.05;2.75;;;;;;;;;;4931790;28;20032;-41
2023/06/18 13:51:21;;;;;;;3.17;2.95;;;;;;;;;;4936125;28;20047;-40
2023/06/18 13:53:46;;;;;;;4.30;2.95;;;;;;;;;;4919736;28;20027;-40
2023/06/18 13:56:12;;;;;;;3.60;2.88;;;;;;;;;;4934202;28;20048;-40
2023/06/18 13:58:37;;;;;;;3.10;2.90;;;;;;;;;;4931946;28;20028;-41
2023/06/18 14:01:03;;;;;;;3.30;3.00;;;;;;;;;;4941981;28;20123;-40
2023/06/18 14:03:28;;;;;;;3.42;3.10;;;;;;;;;;4958351;28;20113;-39
2023/06/18 14:05:53;;;;;;;4.40;3.25;;;;;;;;;;4985455;28;20039;-39
2023/06/18 14:08:19;;;;;;;3.72;3.30;;;;;;;;;;4949573;29;20034;-41
2023/06/18 14:10:44;;;;;;;3.60;3.30;;;;;;;;;;4965827;28;20140;-41
2023/06/18 14:13:10;;;;;;;6.10;3.30;;;;;;;;;;4967664;28;20100;-40
2023/06/18 14:15:35;;;;;;;6.13;3.22;;;;;;;;;;4925737;28;20106;-39
2023/06/18 14:18:01;;;;;;;3.35;2.92;;;;;;;;;;4925242;28;20035;-41
2023/06/18 14:20:26;;;;;;;3.75;2.83;;;;;;;;;;4934731;28;20039;-39
2023/06/18 14:22:52;;;;;;;5.60;2.80;;;;;;;;;;4947470;28;20562;-42
2023/06/18 14:25:17;;;;;;;4.63;3.00;;;;;;;;;;4932371;28;20063;-41
2023/06/18 14:27:47;;;;;;;3.25;2.97;;;;;;;;;;4932450;28;20781;-41
2023/06/18 14:30:14;;;;;;;3.90;2.72;;;;;;;;;;4938436;28;20034;-41
2023/06/18 14:32:40;;;;;;;3.15;2.85;;;;;;;;;;4938989;28;20039;-40
2023/06/18 14:35:05;;;;;;;3.08;2.88;;;;;;;;;;4943927;28;20048;-45